sensor_id;sensor_type;location;lat;lon;timestamp;pressure;altitude;pressure_sealevel;temperature;humidity
18014;BME280;9132;47.946;10.394;2024-01-11T00:00:21;94722.53;;;-7.69;100.00
18014;BME280;9132;47.946;10.394;2024-01-11T00:02:48;94717.97;;;-7.62;100.00
18014;BME280;9132;47.946;10.394;2024-01-11T00:05:14;94721.13;;;-7.57;100.00
18014;BME280;9132;47.946;10.394;2024-01-11T00:07:42;94723.41;;;-7.51;100.00
18014;BME280;9132;47.946;10.394;2024-01-11T00:10:09;94727.41;;;-7.46;100.00
18014;BME280;9132;47.946;10.394;2024-01-11T00:12:35;94710.16;;;-7.42;100.00
18014;BME280;9132;47.946;10.394;2024-01-11T00:15:02;94718.38;;;-7.35;100.00
18014;BME280;9132;47.946;10.394;2024-01-11T00:17:29;94712.91;;;-7.28;100.00
18014;BME280;9132;47.946;10.394;2024-01-11T00:19:56;94717.81;;;-7.23;100.00
18014;BME280;9132;47.946;10.394;2024-01-11T00:22:22;94721.81;;;-7.17;100.00
18014;BME280;9132;47.946;10.394;2024-01-11T00:24:50;94714.13;;;-7.17;100.00
18014;BME280;9132;47.946;10.394;2024-01-11T00:27:16;94717.66;;;-7.20;100.00
18014;BME280;9132;47.946;10.394;2024-01-11T00:29:43;94708.53;;;-7.26;100.00
18014;BME280;9132;47.946;10.394;2024-01-11T00:32:10;94716.66;;;-7.35;100.00
18014;BME280;9132;47.946;10.394;2024-01-11T00:34:36;94721.91;;;-7.38;100.00
18014;BME280;9132;47.946;10.394;2024-01-11T00:37:04;94722.06;;;-7.41;100.00
18014;BME280;9132;47.946;10.394;2024-01-11T00:39:30;94722.81;;;-7.39;100.00
18014;BME280;9132;47.946;10.394;2024-01-11T00:41:58;94726.16;;;-7.37;100.00
18014;BME280;9132;47.946;10.394;2024-01-11T00:44:25;94718.03;;;-7.28;100.00
18014;BME280;9132;47.946;10.394;2024-01-11T00:46:51;94721.03;;;-7.19;100.00
18014;BME280;9132;47.946;10.394;2024-01-11T00:49:18;94718.13;;;-7.12;100.00
18014;BME280;9132;47.946;10.394;2024-01-11T00:51:44;94712.91;;;-7.10;100.00
18014;BME280;9132;47.946;10.394;2024-01-11T00:54:11;94720.59;;;-7.10;100.00
18014;BME280;9132;47.946;10.394;2024-01-11T00:56:37;94724.81;;;-7.09;100.00
18014;BME280;9132;47.946;10.394;2024-01-11T00:59:05;94723.78;;;-7.05;100.00
18014;BME280;9132;47.946;10.394;2024-01-11T01:01:32;94721.28;;;-7.07;100.00
18014;BME280;9132;47.946;10.394;2024-01-11T01:03:58;94725.59;;;-7.07;100.00
18014;BME280;9132;47.946;10.394;2024-01-11T01:06:25;94724.91;;;-7.11;100.00
18014;BME280;9132;47.946;10.394;2024-01-11T01:08:52;94720.38;;;-7.23;100.00
18014;BME280;9132;47.946;10.394;2024-01-11T01:11:18;94721.84;;;-7.36;100.00
18014;BME280;9132;47.946;10.394;2024-01-11T01:13:45;94726.72;;;-7.49;100.00
18014;BME280;9132;47.946;10.394;2024-01-11T01:16:13;94736.59;;;-7.59;100.00
18014;BME280;9132;47.946;10.394;2024-01-11T01:18:40;94740.09;;;-7.61;100.00
18014;BME280;9132;47.946;10.394;2024-01-11T01:21:06;94736.03;;;-7.65;100.00
18014;BME280;9132;47.946;10.394;2024-01-11T01:23:33;94741.31;;;-7.68;100.00
18014;BME280;9132;47.946;10.394;2024-01-11T01:25:59;94738.06;;;-7.72;100.00
18014;BME280;9132;47.946;10.394;2024-01-11T01:28:26;94743.31;;;-7.75;100.00
18014;BME280;9132;47.946;10.394;2024-01-11T01:30:52;94740.25;;;-7.83;100.00
18014;BME280;9132;47.946;10.394;2024-01-11T01:33:20;94739.84;;;-7.93;100.00
18014;BME280;9132;47.946;10.394;2024-01-11T01:35:47;94751.53;;;-8.06;100.00
18014;BME280;9132;47.946;10.394;2024-01-11T01:38:13;94751.94;;;-8.16;100.00
18014;BME280;9132;47.946;10.394;2024-01-11T01:40:40;94757.19;;;-8.19;100.00
18014;BME280;9132;47.946;10.394;2024-01-11T01:43:07;94756.28;;;-8.18;100.00
18014;BME280;9132;47.946;10.394;2024-01-11T01:45:35;94763.19;;;-8.20;100.00
18014;BME280;9132;47.946;10.394;2024-01-11T01:48:02;94759.53;;;-8.14;100.00
18014;BME280;9132;47.946;10.394;2024-01-11T01:50:31;94757.22;;;-8.00;100.00
18014;BME280;9132;47.946;10.394;2024-01-11T01:52:58;94758.41;;;-7.88;100.00
18014;BME280;9132;47.946;10.394;2024-01-11T01:55:25;94757.13;;;-7.79;100.00
18014;BME280;9132;47.946;10.394;2024-01-11T01:57:52;94765.88;;;-7.64;100.00
18014;BME280;9132;47.946;10.394;2024-01-11T02:00:19;94762.13;;;-7.57;100.00
18014;BME280;9132;47.946;10.394;2024-01-11T02:02:50;94767.59;;;-7.46;100.00
18014;BME280;9132;47.946;10.394;2024-01-11T02:05:17;94765.91;;;-7.47;100.00
18014;BME280;9132;47.946;10.394;2024-01-11T02:07:45;94773.25;;;-7.39;100.00
18014;BME280;9132;47.946;10.394;2024-01-11T02:10:12;94780.72;;;-7.35;100.00
18014;BME280;9132;47.946;10.394;2024-01-11T02:12:39;94772.16;;;-7.34;100.00
18014;BME280;9132;47.946;10.394;2024-01-11T02:15:06;94773.81;;;-7.33;100.00
18014;BME280;9132;47.946;10.394;2024-01-11T02:17:33;94783.56;;;-7.41;100.00
18014;BME280;9132;47.946;10.394;2024-01-11T02:20:00;94778.88;;;-7.31;100.00
18014;BME280;9132;47.946;10.394;2024-01-11T02:22:31;94784.88;;;-7.32;100.00
18014;BME280;9132;47.946;10.394;2024-01-11T02:24:59;94787.41;;;-7.31;100.00
18014;BME280;9132;47.946;10.394;2024-01-11T02:27:26;94784.59;;;-7.26;100.00
18014;BME280;9132;47.946;10.394;2024-01-11T02:29:52;94778.28;;;-7.19;100.00
18014;BME280;9132;47.946;10.394;2024-01-11T02:32:19;94783.97;;;-7.12;100.00
18014;BME280;9132;47.946;10.394;2024-01-11T02:34:46;94786.38;;;-7.09;100.00
18014;BME280;9132;47.946;10.394;2024-01-11T02:37:13;94778.84;;;-7.12;100.00
18014;BME280;9132;47.946;10.394;2024-01-11T02:39:40;94782.25;;;-7.12;100.00
18014;BME280;9132;47.946;10.394;2024-01-11T02:42:08;94774.31;;;-7.07;100.00
18014;BME280;9132;47.946;10.394;2024-01-11T02:44:35;94771.41;;;-7.00;100.00
18014;BME280;9132;47.946;10.394;2024-01-11T02:47:02;94777.13;;;-6.94;100.00
18014;BME280;9132;47.946;10.394;2024-01-11T02:49:29;94771.84;;;-6.91;100.00
18014;BME280;9132;47.946;10.394;2024-01-11T02:51:55;94769.28;;;-6.91;100.00
18014;BME280;9132;47.946;10.394;2024-01-11T02:54:22;94767.47;;;-6.89;100.00
18014;BME280;9132;47.946;10.394;2024-01-11T02:56:48;94761.53;;;-6.90;100.00
18014;BME280;9132;47.946;10.394;2024-01-11T02:59:16;94763.16;;;-6.89;100.00
18014;BME280;9132;47.946;10.394;2024-01-11T03:01:43;94759.84;;;-6.91;100.00
18014;BME280;9132;47.946;10.394;2024-01-11T03:04:09;94756.44;;;-6.91;100.00
18014;BME280;9132;47.946;10.394;2024-01-11T03:06:36;94753.06;;;-6.92;100.00
18014;BME280;9132;47.946;10.394;2024-01-11T03:09:03;94759.94;;;-6.92;100.00
18014;BME280;9132;47.946;10.394;2024-01-11T03:11:29;94760.66;;;-6.90;100.00
18014;BME280;9132;47.946;10.394;2024-01-11T03:13:56;94751.25;;;-6.90;100.00
18014;BME280;9132;47.946;10.394;2024-01-11T03:16:24;94750.41;;;-6.90;100.00
18014;BME280;9132;47.946;10.394;2024-01-11T03:18:50;94754.66;;;-6.89;100.00
18014;BME280;9132;47.946;10.394;2024-01-11T03:21:17;94751.25;;;-6.90;100.00
18014;BME280;9132;47.946;10.394;2024-01-11T03:23:43;94748.59;;;-6.88;100.00
18014;BME280;9132;47.946;10.394;2024-01-11T03:26:13;94748.59;;;-6.88;100.00
18014;BME280;9132;47.946;10.394;2024-01-11T03:28:40;94735.72;;;-6.87;100.00
18014;BME280;9132;47.946;10.394;2024-01-11T03:31:07;94738.28;;;-6.87;100.00
18014;BME280;9132;47.946;10.394;2024-01-11T03:33:35;94734.97;;;-6.89;100.00
18014;BME280;9132;47.946;10.394;2024-01-11T03:36:06;94743.56;;;-6.90;100.00
18014;BME280;9132;47.946;10.394;2024-01-11T03:38:33;94739.16;;;-6.88;100.00
18014;BME280;9132;47.946;10.394;2024-01-11T03:41:00;94747.69;;;-6.87;100.00
18014;BME280;9132;47.946;10.394;2024-01-11T03:43:27;94750.25;;;-6.87;100.00
18014;BME280;9132;47.946;10.394;2024-01-11T03:45:53;94751.63;;;-6.80;100.00
18014;BME280;9132;47.946;10.394;2024-01-11T03:48:20;94748.84;;;-6.76;100.00
18014;BME280;9132;47.946;10.394;2024-01-11T03:50:48;94744.63;;;-6.77;100.00
18014;BME280;9132;47.946;10.394;2024-01-11T03:53:14;94745.44;;;-6.76;100.00
18014;BME280;9132;47.946;10.394;2024-01-11T03:55:41;94732.75;;;-6.79;100.00
18014;BME280;9132;47.946;10.394;2024-01-11T03:58:07;94747.09;;;-6.75;100.00
18014;BME280;9132;47.946;10.394;2024-01-11T04:00:34;94745.53;;;-6.78;100.00
18014;BME280;9132;47.946;10.394;2024-01-11T04:03:00;94738.88;;;-6.82;100.00
18014;BME280;9132;47.946;10.394;2024-01-11T04:05:28;94738.00;;;-6.81;100.00
18014;BME280;9132;47.946;10.394;2024-01-11T04:07:56;94738.00;;;-6.81;100.00
18014;BME280;9132;47.946;10.394;2024-01-11T04:10:22;94739.69;;;-6.81;100.00
18014;BME280;9132;47.946;10.394;2024-01-11T04:12:49;94730.44;;;-6.84;100.00
18014;BME280;9132;47.946;10.394;2024-01-11T04:15:15;94727.13;;;-6.86;100.00
18014;BME280;9132;47.946;10.394;2024-01-11T04:17:42;94728.84;;;-6.86;100.00
18014;BME280;9132;47.946;10.394;2024-01-11T04:20:09;94727.16;;;-6.87;100.00
18014;BME280;9132;47.946;10.394;2024-01-11T04:22:36;94724.59;;;-6.87;100.00
18014;BME280;9132;47.946;10.394;2024-01-11T04:25:05;94729.00;;;-6.89;100.00
18014;BME280;9132;47.946;10.394;2024-01-11T04:27:31;94720.53;;;-6.91;100.00
18014;BME280;9132;47.946;10.394;2024-01-11T04:29:58;94720.63;;;-6.93;100.00
18014;BME280;9132;47.946;10.394;2024-01-11T04:32:24;94722.38;;;-6.93;100.00
18014;BME280;9132;47.946;10.394;2024-01-11T04:34:51;94727.72;;;-6.98;100.00
18014;BME280;9132;47.946;10.394;2024-01-11T04:37:18;94732.06;;;-7.00;100.00
18014;BME280;9132;47.946;10.394;2024-01-11T04:39:45;94724.63;;;-7.05;100.00
18014;BME280;9132;47.946;10.394;2024-01-11T04:42:13;94734.19;;;-7.08;100.00
18014;BME280;9132;47.946;10.394;2024-01-11T04:44:39;94722.44;;;-7.12;100.00
18014;BME280;9132;47.946;10.394;2024-01-11T04:47:06;94728.59;;;-7.16;100.00
18014;BME280;9132;47.946;10.394;2024-01-11T04:49:33;94731.16;;;-7.16;100.00
18014;BME280;9132;47.946;10.394;2024-01-11T04:52:00;94730.41;;;-7.18;100.00
18014;BME280;9132;47.946;10.394;2024-01-11T04:54:26;94723.69;;;-7.21;100.00
18014;BME280;9132;47.946;10.394;2024-01-11T04:56:53;94729.66;;;-7.20;100.00
18014;BME280;9132;47.946;10.394;2024-01-11T04:59:21;94728.69;;;-7.18;100.00
18014;BME280;9132;47.946;10.394;2024-01-11T05:01:47;94723.56;;;-7.18;100.00
18014;BME280;9132;47.946;10.394;2024-01-11T05:04:14;94730.13;;;-7.12;100.00
18014;BME280;9132;47.946;10.394;2024-01-11T05:06:40;94726.56;;;-7.10;100.00
18014;BME280;9132;47.946;10.394;2024-01-11T05:09:07;94727.25;;;-7.06;100.00
18014;BME280;9132;47.946;10.394;2024-01-11T05:11:34;94722.97;;;-7.06;100.00
18014;BME280;9132;47.946;10.394;2024-01-11T05:14:00;94729.81;;;-7.06;100.00
18014;BME280;9132;47.946;10.394;2024-01-11T05:16:29;94727.19;;;-7.05;100.00
18014;BME280;9132;47.946;10.394;2024-01-11T05:18:57;94733.22;;;-7.06;100.00
18014;BME280;9132;47.946;10.394;2024-01-11T05:21:24;94739.19;;;-7.05;100.00
18014;BME280;9132;47.946;10.394;2024-01-11T05:23:51;94740.00;;;-7.05;100.00
18014;BME280;9132;47.946;10.394;2024-01-11T05:26:18;94737.44;;;-7.05;100.00
18014;BME280;9132;47.946;10.394;2024-01-11T05:28:45;94749.34;;;-7.04;100.00
18014;BME280;9132;47.946;10.394;2024-01-11T05:31:12;94751.31;;;-7.09;100.00
18014;BME280;9132;47.946;10.394;2024-01-11T05:33:41;94752.00;;;-7.05;100.00
18014;BME280;9132;47.946;10.394;2024-01-11T05:36:08;94748.53;;;-7.04;100.00
18014;BME280;9132;47.946;10.394;2024-01-11T05:38:35;94744.38;;;-7.07;100.00
18014;BME280;9132;47.946;10.394;2024-01-11T05:41:01;94754.47;;;-7.04;100.00
18014;BME280;9132;47.946;10.394;2024-01-11T05:43:28;94765.66;;;-7.05;100.00
18014;BME280;9132;47.946;10.394;2024-01-11T05:45:54;94764.81;;;-7.05;100.00
18014;BME280;9132;47.946;10.394;2024-01-11T05:48:21;94764.06;;;-7.07;100.00
18014;BME280;9132;47.946;10.394;2024-01-11T05:50:49;94757.31;;;-7.10;100.00
18014;BME280;9132;47.946;10.394;2024-01-11T05:53:15;94761.56;;;-7.09;100.00
18014;BME280;9132;47.946;10.394;2024-01-11T05:55:45;94755.59;;;-7.09;100.00
18014;BME280;9132;47.946;10.394;2024-01-11T05:58:12;94750.47;;;-7.09;100.00
18014;BME280;9132;47.946;10.394;2024-01-11T06:00:38;94752.97;;;-7.08;100.00
18014;BME280;9132;47.946;10.394;2024-01-11T06:03:05;94754.63;;;-7.07;100.00
18014;BME280;9132;47.946;10.394;2024-01-11T06:05:32;94749.44;;;-7.05;100.00
18014;BME280;9132;47.946;10.394;2024-01-11T06:08:00;94750.25;;;-7.05;100.00
18014;BME280;9132;47.946;10.394;2024-01-11T06:10:26;94751.91;;;-7.04;100.00
18014;BME280;9132;47.946;10.394;2024-01-11T06:12:53;94750.13;;;-7.02;100.00
18014;BME280;9132;47.946;10.394;2024-01-11T06:15:21;94767.09;;;-6.99;100.00
18014;BME280;9132;47.946;10.394;2024-01-11T06:17:48;94774.69;;;-6.97;100.00
18014;BME280;9132;47.946;10.394;2024-01-11T06:20:15;94783.06;;;-6.94;100.00
18014;BME280;9132;47.946;10.394;2024-01-11T06:22:41;94780.50;;;-6.94;100.00
18014;BME280;9132;47.946;10.394;2024-01-11T06:25:09;94786.41;;;-6.92;100.00
18014;BME280;9132;47.946;10.394;2024-01-11T06:27:36;94788.06;;;-6.91;100.00
18014;BME280;9132;47.946;10.394;2024-01-11T06:30:03;94791.31;;;-6.87;100.00
18014;BME280;9132;47.946;10.394;2024-01-11T06:32:30;94794.63;;;-6.85;100.00
18014;BME280;9132;47.946;10.394;2024-01-11T06:34:56;94796.53;;;-6.89;100.00
18014;BME280;9132;47.946;10.394;2024-01-11T06:37:23;94793.97;;;-6.89;100.00
18014;BME280;9132;47.946;10.394;2024-01-11T06:39:49;94798.31;;;-6.91;100.00
18014;BME280;9132;47.946;10.394;2024-01-11T06:42:17;94789.75;;;-6.90;100.00
18014;BME280;9132;47.946;10.394;2024-01-11T06:44:44;94797.28;;;-6.87;100.00
18014;BME280;9132;47.946;10.394;2024-01-11T06:47:10;94786.03;;;-6.84;100.00
18014;BME280;9132;47.946;10.394;2024-01-11T06:49:38;94789.44;;;-6.84;100.00
18014;BME280;9132;47.946;10.394;2024-01-11T06:52:05;94791.31;;;-6.87;100.00
18014;BME280;9132;47.946;10.394;2024-01-11T06:54:31;94794.72;;;-6.87;100.00
18014;BME280;9132;47.946;10.394;2024-01-11T06:56:58;94799.75;;;-6.85;100.00
18014;BME280;9132;47.946;10.394;2024-01-11T06:59:26;94793.66;;;-6.83;100.00
18014;BME280;9132;47.946;10.394;2024-01-11T07:01:52;94799.19;;;-6.73;100.00
18014;BME280;9132;47.946;10.394;2024-01-11T07:04:19;94800.69;;;-6.69;100.00
18014;BME280;9132;47.946;10.394;2024-01-11T07:06:46;94797.28;;;-6.69;100.00
18014;BME280;9132;47.946;10.394;2024-01-11T07:09:12;94803.34;;;-6.70;100.00
18014;BME280;9132;47.946;10.394;2024-01-11T07:11:40;94814.28;;;-6.67;100.00
18014;BME280;9132;47.946;10.394;2024-01-11T07:14:06;94821.16;;;-6.67;100.00
18014;BME280;9132;47.946;10.394;2024-01-11T07:16:35;94819.47;;;-6.68;100.00
18014;BME280;9132;47.946;10.394;2024-01-11T07:19:02;94801.22;;;-6.80;100.00
18014;BME280;9132;47.946;10.394;2024-01-11T07:21:29;94816.16;;;-6.70;100.00
18014;BME280;9132;47.946;10.394;2024-01-11T07:23:56;94805.81;;;-6.69;100.00
18014;BME280;9132;47.946;10.394;2024-01-11T07:26:23;94809.16;;;-6.67;100.00
18014;BME280;9132;47.946;10.394;2024-01-11T07:28:50;94811.84;;;-6.70;100.00
18014;BME280;9132;47.946;10.394;2024-01-11T07:31:17;94823.78;;;-6.69;100.00
18014;BME280;9132;47.946;10.394;2024-01-11T07:33:45;94831.28;;;-6.64;100.00
18014;BME280;9132;47.946;10.394;2024-01-11T07:36:11;94828.69;;;-6.64;100.00
18014;BME280;9132;47.946;10.394;2024-01-11T07:38:38;94826.19;;;-6.66;100.00
18014;BME280;9132;47.946;10.394;2024-01-11T07:41:05;94830.28;;;-6.62;100.00
18014;BME280;9132;47.946;10.394;2024-01-11T07:43:31;94839.06;;;-6.48;100.00
18014;BME280;9132;47.946;10.394;2024-01-11T07:46:01;94834.97;;;-6.53;100.00
18014;BME280;9132;47.946;10.394;2024-01-11T07:48:28;94846.00;;;-6.50;100.00
18014;BME280;9132;47.946;10.394;2024-01-11T07:50:58;94844.19;;;-6.48;100.00
18014;BME280;9132;47.946;10.394;2024-01-11T07:53:25;94844.88;;;-6.45;100.00
18014;BME280;9132;47.946;10.394;2024-01-11T07:55:52;94852.31;;;-6.40;100.00
18014;BME280;9132;47.946;10.394;2024-01-11T07:58:18;94856.44;;;-6.36;100.00
18014;BME280;9132;47.946;10.394;2024-01-11T08:00:47;94862.81;;;-6.27;100.00
18014;BME280;9132;47.946;10.394;2024-01-11T08:03:13;94860.19;;;-6.26;100.00
18014;BME280;9132;47.946;10.394;2024-01-11T08:05:40;94866.25;;;-6.27;100.00
18014;BME280;9132;47.946;10.394;2024-01-11T08:08:09;94867.00;;;-6.25;100.00
18014;BME280;9132;47.946;10.394;2024-01-11T08:10:35;94871.00;;;-6.37;100.00
18014;BME280;9132;47.946;10.394;2024-01-11T08:13:02;94866.25;;;-6.27;100.00
18014;BME280;9132;47.946;10.394;2024-01-11T08:15:29;94867.00;;;-6.08;100.00
18014;BME280;9132;47.946;10.394;2024-01-11T08:17:55;94863.16;;;-5.99;100.00
18014;BME280;9132;47.946;10.394;2024-01-11T08:20:22;94856.66;;;-5.90;100.00
18014;BME280;9132;47.946;10.394;2024-01-11T08:22:48;94852.19;;;-5.87;100.00
18014;BME280;9132;47.946;10.394;2024-01-11T08:25:16;94857.03;;;-5.80;100.00
18014;BME280;9132;47.946;10.394;2024-01-11T08:27:43;94856.88;;;-5.77;100.00
18014;BME280;9132;47.946;10.394;2024-01-11T08:30:10;94858.38;;;-5.73;100.00
18014;BME280;9132;47.946;10.394;2024-01-11T08:32:37;94859.88;;;-5.69;100.00
18014;BME280;9132;47.946;10.394;2024-01-11T08:35:08;94863.94;;;-5.65;100.00
18014;BME280;9132;47.946;10.394;2024-01-11T08:37:35;94867.03;;;-5.59;100.00
18014;BME280;9132;47.946;10.394;2024-01-11T08:40:02;94868.47;;;-5.53;100.00
18014;BME280;9132;47.946;10.394;2024-01-11T08:42:31;94872.63;;;-5.50;100.00
18014;BME280;9132;47.946;10.394;2024-01-11T08:44:58;94867.38;;;-5.49;100.00
18014;BME280;9132;47.946;10.394;2024-01-11T08:47:29;94870.81;;;-5.48;100.00
18014;BME280;9132;47.946;10.394;2024-01-11T08:49:56;94867.31;;;-5.47;100.00
18014;BME280;9132;47.946;10.394;2024-01-11T08:52:22;94861.91;;;-5.43;100.00
18014;BME280;9132;47.946;10.394;2024-01-11T08:54:49;94852.22;;;-5.38;100.00
18014;BME280;9132;47.946;10.394;2024-01-11T08:57:15;94857.97;;;-5.32;100.00
18014;BME280;9132;47.946;10.394;2024-01-11T08:59:43;94857.97;;;-5.32;100.00
18014;BME280;9132;47.946;10.394;2024-01-11T09:02:10;94856.28;;;-5.33;100.00
18014;BME280;9132;47.946;10.394;2024-01-11T09:04:37;94861.53;;;-5.35;100.00
18014;BME280;9132;47.946;10.394;2024-01-11T09:07:03;94878.78;;;-5.37;100.00
18014;BME280;9132;47.946;10.394;2024-01-11T09:09:30;94880.84;;;-5.44;100.00
18014;BME280;9132;47.946;10.394;2024-01-11T09:11:56;94867.81;;;-5.41;100.00
18014;BME280;9132;47.946;10.394;2024-01-11T09:14:23;94869.91;;;-5.31;100.00
18014;BME280;9132;47.946;10.394;2024-01-11T09:16:51;94876.38;;;-5.24;100.00
18014;BME280;9132;47.946;10.394;2024-01-11T09:19:17;94885.53;;;-5.19;100.00
18014;BME280;9132;47.946;10.394;2024-01-11T09:21:44;94891.28;;;-5.14;100.00
18014;BME280;9132;47.946;10.394;2024-01-11T09:24:10;94898.56;;;-5.06;100.00
18014;BME280;9132;47.946;10.394;2024-01-11T09:26:37;94902.38;;;-5.13;100.00
18014;BME280;9132;47.946;10.394;2024-01-11T09:29:03;94914.88;;;-5.39;100.00
18014;BME280;9132;47.946;10.394;2024-01-11T09:31:30;94937.59;;;-5.31;100.00
18014;BME280;9132;47.946;10.394;2024-01-11T09:33:57;94942.59;;;-5.28;100.00
18014;BME280;9132;47.946;10.394;2024-01-11T09:36:24;94943.06;;;-5.37;100.00
18014;BME280;9132;47.946;10.394;2024-01-11T09:38:51;94933.91;;;-5.25;100.00
18014;BME280;9132;47.946;10.394;2024-01-11T09:41:17;94923.69;;;-5.11;100.00
18014;BME280;9132;47.946;10.394;2024-01-11T09:43:45;94928.31;;;-5.00;100.00
18014;BME280;9132;47.946;10.394;2024-01-11T09:46:12;94935.53;;;-4.91;100.00
18014;BME280;9132;47.946;10.394;2024-01-11T09:48:40;94948.66;;;-4.80;100.00
18014;BME280;9132;47.946;10.394;2024-01-11T09:51:12;94940.44;;;-4.71;100.00
18014;BME280;9132;47.946;10.394;2024-01-11T09:53:39;94938.19;;;-4.61;100.00
18014;BME280;9132;47.946;10.394;2024-01-11T09:56:08;94944.84;;;-4.57;100.00
18014;BME280;9132;47.946;10.394;2024-01-11T09:58:36;94936.88;;;-4.52;100.00
18014;BME280;9132;47.946;10.394;2024-01-11T10:01:07;94937.69;;;-4.52;100.00
18014;BME280;9132;47.946;10.394;2024-01-11T10:03:35;94926.06;;;-4.43;100.00
18014;BME280;9132;47.946;10.394;2024-01-11T10:06:02;94924.91;;;-4.37;100.00
18014;BME280;9132;47.946;10.394;2024-01-11T10:08:31;94920.22;;;-4.31;100.00
18014;BME280;9132;47.946;10.394;2024-01-11T10:10:59;94919.41;;;-4.31;100.00
18014;BME280;9132;47.946;10.394;2024-01-11T10:13:27;94917.66;;;-4.31;100.00
18014;BME280;9132;47.946;10.394;2024-01-11T10:16:04;94921.31;;;-4.35;100.00
18014;BME280;9132;47.946;10.394;2024-01-11T10:18:31;94918.75;;;-4.35;100.00
18014;BME280;9132;47.946;10.394;2024-01-11T10:20:58;94907.03;;;-4.40;100.00
18014;BME280;9132;47.946;10.394;2024-01-11T10:23:24;94901.28;;;-4.30;100.00
18014;BME280;9132;47.946;10.394;2024-01-11T10:25:56;94898.09;;;-4.19;100.00
18014;BME280;9132;47.946;10.394;2024-01-11T10:28:23;94889.00;;;-4.10;100.00
18014;BME280;9132;47.946;10.394;2024-01-11T10:30:51;94887.84;;;-4.05;100.00
18014;BME280;9132;47.946;10.394;2024-01-11T10:33:19;94881.41;;;-3.98;100.00
18014;BME280;9132;47.946;10.394;2024-01-11T10:35:46;94869.91;;;-3.92;100.00
18014;BME280;9132;47.946;10.394;2024-01-11T10:38:14;94873.78;;;-3.85;100.00
18014;BME280;9132;47.946;10.394;2024-01-11T10:40:41;94871.31;;;-3.86;100.00
18014;BME280;9132;47.946;10.394;2024-01-11T10:43:10;94873.88;;;-3.86;100.00
18014;BME280;9132;47.946;10.394;2024-01-11T10:45:38;94877.28;;;-3.86;100.00
18014;BME280;9132;47.946;10.394;2024-01-11T10:48:07;94863.03;;;-3.77;100.00
18014;BME280;9132;47.946;10.394;2024-01-11T10:50:35;94854.66;;;-3.66;100.00
18014;BME280;9132;47.946;10.394;2024-01-11T10:53:04;94843.16;;;-3.61;100.00
18014;BME280;9132;47.946;10.394;2024-01-11T10:55:34;94844.28;;;-3.65;100.00
18014;BME280;9132;47.946;10.394;2024-01-11T10:58:01;94845.09;;;-3.64;100.00
18014;BME280;9132;47.946;10.394;2024-01-11T11:00:31;94835.88;;;-3.54;100.00
18014;BME280;9132;47.946;10.394;2024-01-11T11:02:58;94839.28;;;-3.54;100.00
18014;BME280;9132;47.946;10.394;2024-01-11T11:05:27;94845.09;;;-3.50;100.00
18014;BME280;9132;47.946;10.394;2024-01-11T11:07:55;94839.13;;;-3.36;100.00
18014;BME280;9132;47.946;10.394;2024-01-11T11:10:24;94842.97;;;-3.29;100.00
18014;BME280;9132;47.946;10.394;2024-01-11T11:12:54;94835.34;;;-3.31;100.00
18014;BME280;9132;47.946;10.394;2024-01-11T11:15:23;94824.72;;;-3.26;100.00
18014;BME280;9132;47.946;10.394;2024-01-11T11:17:51;94832.91;;;-3.19;100.00
18014;BME280;9132;47.946;10.394;2024-01-11T11:20:18;94831.16;;;-3.19;100.00
18014;BME280;9132;47.946;10.394;2024-01-11T11:22:48;94830.44;;;-3.21;100.00
18014;BME280;9132;47.946;10.394;2024-01-11T11:25:24;94835.03;;;-3.26;100.00
18014;BME280;9132;47.946;10.394;2024-01-11T11:27:51;94839.75;;;-3.33;100.00
18014;BME280;9132;47.946;10.394;2024-01-11T11:30:19;94841.59;;;-3.35;100.00
18014;BME280;9132;47.946;10.394;2024-01-11T11:32:46;94824.09;;;-3.30;100.00
18014;BME280;9132;47.946;10.394;2024-01-11T11:35:14;94830.25;;;-3.18;100.00
18014;BME280;9132;47.946;10.394;2024-01-11T11:37:40;94828.00;;;-3.10;100.00
18014;BME280;9132;47.946;10.394;2024-01-11T11:40:09;94817.94;;;-3.00;100.00
18014;BME280;9132;47.946;10.394;2024-01-11T11:42:37;94824.28;;;-2.91;100.00
18014;BME280;9132;47.946;10.394;2024-01-11T11:45:05;94835.19;;;-3.00;100.00
18014;BME280;9132;47.946;10.394;2024-01-11T11:47:35;94839.53;;;-3.15;100.00
18014;BME280;9132;47.946;10.394;2024-01-11T11:50:06;94839.38;;;-3.41;100.00
18014;BME280;9132;47.946;10.394;2024-01-11T11:52:36;94834.75;;;-3.50;100.00
18014;BME280;9132;47.946;10.394;2024-01-11T11:55:07;94841.69;;;-3.51;100.00
18014;BME280;9132;47.946;10.394;2024-01-11T11:57:34;94837.09;;;-3.45;100.00
18014;BME280;9132;47.946;10.394;2024-01-11T12:00:02;94835.88;;;-3.40;100.00
18014;BME280;9132;47.946;10.394;2024-01-11T12:02:31;94843.19;;;-3.46;100.00
18014;BME280;9132;47.946;10.394;2024-01-11T12:05:01;94837.66;;;-3.40;100.00
18014;BME280;9132;47.946;10.394;2024-01-11T12:07:29;94833.31;;;-3.54;100.00
18014;BME280;9132;47.946;10.394;2024-01-11T12:09:57;94836.25;;;-3.46;100.00
18014;BME280;9132;47.946;10.394;2024-01-11T12:12:23;94833.94;;;-3.51;100.00
18014;BME280;9132;47.946;10.394;2024-01-11T12:14:50;94832.19;;;-3.36;100.00
18014;BME280;9132;47.946;10.394;2024-01-11T12:17:17;94845.84;;;-3.34;100.00
18014;BME280;9132;47.946;10.394;2024-01-11T12:19:44;94845.81;;;-3.19;100.00
18014;BME280;9132;47.946;10.394;2024-01-11T12:22:10;94852.06;;;-3.09;100.00
18014;BME280;9132;47.946;10.394;2024-01-11T12:24:37;94860.28;;;-3.31;100.00
18014;BME280;9132;47.946;10.394;2024-01-11T12:27:05;94856.25;;;-3.50;100.00
18014;BME280;9132;47.946;10.394;2024-01-11T12:29:32;94842.97;;;-3.58;100.00
18014;BME280;9132;47.946;10.394;2024-01-11T12:31:59;94835.63;;;-3.50;100.00
18014;BME280;9132;47.946;10.394;2024-01-11T12:34:26;94832.56;;;-3.42;100.00
18014;BME280;9132;47.946;10.394;2024-01-11T12:36:53;94838.81;;;-3.32;100.00
18014;BME280;9132;47.946;10.394;2024-01-11T12:39:20;94832.19;;;-3.21;100.00
18014;BME280;9132;47.946;10.394;2024-01-11T12:41:49;94835.22;;;-3.15;100.00
18014;BME280;9132;47.946;10.394;2024-01-11T12:44:17;94833.53;;;-3.16;100.00
18014;BME280;9132;47.946;10.394;2024-01-11T12:46:44;94842.03;;;-3.14;100.00
18014;BME280;9132;47.946;10.394;2024-01-11T12:49:10;94838.25;;;-3.22;100.00